sensor_id;sensor_type;location;lat;lon;timestamp;pressure;altitude;pressure_sealevel;temperature;humidity
78210;BME280;67485;48.816;9.930;2023-04-28T00:01:09;96706.06;;;10.34;67.28
78210;BME280;67485;48.816;9.930;2023-04-28T00:03:35;96702.53;;;10.38;67.12
78210;BME280;67485;48.816;9.930;2023-04-28T00:06:02;96695.59;;;10.34;67.20
78210;BME280;67485;48.816;9.930;2023-04-28T00:08:28;96697.28;;;10.38;67.99
78210;BME280;67485;48.816;9.930;2023-04-28T00:10:54;96696.47;;;10.34;67.66
78210;BME280;67485;48.816;9.930;2023-04-28T00:13:19;96693.91;;;10.33;67.73
78210;BME280;67485;48.816;9.930;2023-04-28T00:15:45;96689.41;;;10.38;67.76
78210;BME280;67485;48.816;9.930;2023-04-28T00:18:11;96679.75;;;10.40;67.83
78210;BME280;67485;48.816;9.930;2023-04-28T00:20:36;96669.19;;;10.43;67.83
78210;BME280;67485;48.816;9.930;2023-04-28T00:23:02;96666.53;;;10.45;67.80
78210;BME280;67485;48.816;9.930;2023-04-28T00:25:28;96662.06;;;10.48;67.72
78210;BME280;67485;48.816;9.930;2023-04-28T00:27:54;96653.25;;;10.51;68.17
78210;BME280;67485;48.816;9.930;2023-04-28T00:30:20;96655.09;;;10.47;68.36
78210;BME280;67485;48.816;9.930;2023-04-28T00:32:46;96657.59;;;10.52;67.61
78210;BME280;67485;48.816;9.930;2023-04-28T00:35:11;96658.25;;;10.59;67.90
78210;BME280;67485;48.816;9.930;2023-04-28T00:37:38;96656.53;;;10.58;68.04
78210;BME280;67485;48.816;9.930;2023-04-28T00:40:04;96645.97;;;10.61;67.94
78210;BME280;67485;48.816;9.930;2023-04-28T00:42:30;96637.13;;;10.65;67.46
78210;BME280;67485;48.816;9.930;2023-04-28T00:44:56;96629.97;;;10.70;67.47
78210;BME280;67485;48.816;9.930;2023-04-28T00:47:22;96633.59;;;10.66;68.36
78210;BME280;67485;48.816;9.930;2023-04-28T00:49:50;96637.81;;;10.70;67.96
78210;BME280;67485;48.816;9.930;2023-04-28T00:52:16;96631.56;;;10.76;68.70
78210;BME280;67485;48.816;9.930;2023-04-28T00:54:42;96636.69;;;10.79;68.65
78210;BME280;67485;48.816;9.930;2023-04-28T00:57:09;96639.25;;;10.80;68.22
78210;BME280;67485;48.816;9.930;2023-04-28T00:59:35;96645.25;;;10.85;67.85
78210;BME280;67485;48.816;9.930;2023-04-28T01:02:01;96646.03;;;10.87;68.72
78210;BME280;67485;48.816;9.930;2023-04-28T01:04:28;96654.72;;;10.90;68.26
78210;BME280;67485;48.816;9.930;2023-04-28T01:06:54;96651.03;;;10.95;67.91
78210;BME280;67485;48.816;9.930;2023-04-28T01:09:20;96639.31;;;11.07;67.15
78210;BME280;67485;48.816;9.930;2023-04-28T01:11:48;96628.53;;;11.16;66.26
78210;BME280;67485;48.816;9.930;2023-04-28T01:14:25;96624.94;;;11.19;66.42
78210;BME280;67485;48.816;9.930;2023-04-28T01:16:52;96617.97;;;11.19;65.93
78210;BME280;67485;48.816;9.930;2023-04-28T01:19:20;96620.28;;;11.29;65.96
78210;BME280;67485;48.816;9.930;2023-04-28T01:21:51;96618.47;;;11.31;65.93
78210;BME280;67485;48.816;9.930;2023-04-28T01:24:21;96619.16;;;11.36;66.94
78210;BME280;67485;48.816;9.930;2023-04-28T01:26:47;96614.75;;;11.38;66.10
78210;BME280;67485;48.816;9.930;2023-04-28T01:29:12;96620.88;;;11.37;66.00
78210;BME280;67485;48.816;9.930;2023-04-28T01:31:38;96603.63;;;11.30;66.75
78210;BME280;67485;48.816;9.930;2023-04-28T01:34:04;96593.13;;;11.30;67.47
78210;BME280;67485;48.816;9.930;2023-04-28T01:36:30;96601.81;;;11.32;67.61
78210;BME280;67485;48.816;9.930;2023-04-28T01:38:56;96598.06;;;11.39;68.53
78210;BME280;67485;48.816;9.930;2023-04-28T01:41:21;96602.63;;;11.34;69.11
78210;BME280;67485;48.816;9.930;2023-04-28T01:43:47;96595.56;;;11.36;69.21
78210;BME280;67485;48.816;9.930;2023-04-28T01:46:13;96600.31;;;11.25;69.79
78210;BME280;67485;48.816;9.930;2023-04-28T01:48:39;96598.69;;;11.21;69.17
78210;BME280;67485;48.816;9.930;2023-04-28T01:51:04;96603.06;;;11.20;69.11
78210;BME280;67485;48.816;9.930;2023-04-28T01:53:30;96594.56;;;11.13;69.94
78210;BME280;67485;48.816;9.930;2023-04-28T01:59:37;96591.94;;;11.13;71.49
78210;BME280;67485;48.816;9.930;2023-04-28T02:02:04;96596.97;;;11.19;70.50
78210;BME280;67485;48.816;9.930;2023-04-28T02:04:31;96596.88;;;11.23;71.74
78210;BME280;67485;48.816;9.930;2023-04-28T02:06:57;96587.28;;;11.22;70.08
78210;BME280;67485;48.816;9.930;2023-04-28T02:09:23;96594.34;;;11.19;70.15
78210;BME280;67485;48.816;9.930;2023-04-28T02:11:49;96596.22;;;11.16;72.33
78210;BME280;67485;48.816;9.930;2023-04-28T02:14:15;96596.28;;;11.14;71.39
78210;BME280;67485;48.816;9.930;2023-04-28T02:16:41;96588.41;;;11.14;72.26
78210;BME280;67485;48.816;9.930;2023-04-28T02:19:06;96594.25;;;11.23;75.31
78210;BME280;67485;48.816;9.930;2023-04-28T02:21:32;96600.81;;;11.09;77.66
78210;BME280;67485;48.816;9.930;2023-04-28T02:23:58;96606.25;;;11.03;75.53
78210;BME280;67485;48.816;9.930;2023-04-28T02:26:24;96610.97;;;10.92;76.73
78210;BME280;67485;48.816;9.930;2023-04-28T02:28:50;96614.34;;;10.95;75.83
78210;BME280;67485;48.816;9.930;2023-04-28T02:31:16;96610.16;;;10.90;77.12
78210;BME280;67485;48.816;9.930;2023-04-28T02:33:42;96597.53;;;10.74;77.91
78210;BME280;67485;48.816;9.930;2023-04-28T02:36:09;96588.75;;;10.75;77.82
78210;BME280;67485;48.816;9.930;2023-04-28T02:38:35;96580.03;;;10.75;79.20
78210;BME280;67485;48.816;9.930;2023-04-28T02:41:05;96574.59;;;10.81;79.48
78210;BME280;67485;48.816;9.930;2023-04-28T02:43:34;96582.59;;;10.76;78.48
78210;BME280;67485;48.816;9.930;2023-04-28T02:46:03;96571.47;;;10.69;79.04
78210;BME280;67485;48.816;9.930;2023-04-28T02:48:29;96571.47;;;10.69;77.94
78210;BME280;67485;48.816;9.930;2023-04-28T02:50:55;96574.50;;;10.84;78.94
78210;BME280;67485;48.816;9.930;2023-04-28T02:53:21;96571.16;;;10.79;78.93
78210;BME280;67485;48.816;9.930;2023-04-28T02:55:48;96563.09;;;10.85;79.72
78210;BME280;67485;48.816;9.930;2023-04-28T02:58:14;96567.66;;;10.80;79.51
78210;BME280;67485;48.816;9.930;2023-04-28T03:00:40;96572.31;;;10.70;80.95
78210;BME280;67485;48.816;9.930;2023-04-28T03:03:06;96568.78;;;10.71;79.30
78210;BME280;67485;48.816;9.930;2023-04-28T03:05:32;96561.63;;;10.76;77.67
78210;BME280;67485;48.816;9.930;2023-04-28T03:07:57;96559.84;;;10.78;80.11
78210;BME280;67485;48.816;9.930;2023-04-28T03:10:23;96558.00;;;10.80;78.12
78210;BME280;67485;48.816;9.930;2023-04-28T03:12:49;96554.69;;;10.75;79.86
78210;BME280;67485;48.816;9.930;2023-04-28T03:15:16;96560.09;;;10.70;81.02
78210;BME280;67485;48.816;9.930;2023-04-28T03:17:42;96555.63;;;10.73;81.62
78210;BME280;67485;48.816;9.930;2023-04-28T03:20:09;96552.06;;;10.75;80.32
78210;BME280;67485;48.816;9.930;2023-04-28T03:22:35;96553.06;;;10.71;81.58
78210;BME280;67485;48.816;9.930;2023-04-28T03:25:01;96553.00;;;10.74;81.32
78210;BME280;67485;48.816;9.930;2023-04-28T03:27:29;96543.16;;;10.81;78.73
78210;BME280;67485;48.816;9.930;2023-04-28T03:29:56;96548.28;;;10.84;80.37
78210;BME280;67485;48.816;9.930;2023-04-28T03:32:22;96550.97;;;10.82;80.02
78210;BME280;67485;48.816;9.930;2023-04-28T03:34:47;96543.34;;;10.75;80.65
78210;BME280;67485;48.816;9.930;2023-04-28T03:37:13;96540.66;;;10.76;80.53
78210;BME280;67485;48.816;9.930;2023-04-28T03:39:39;96522.31;;;10.76;80.84
78210;BME280;67485;48.816;9.930;2023-04-28T03:42:05;96521.31;;;10.80;82.52
78210;BME280;67485;48.816;9.930;2023-04-28T03:44:36;96519.66;;;11.05;79.40
78210;BME280;67485;48.816;9.930;2023-04-28T03:47:03;96514.00;;;11.17;76.27
78210;BME280;67485;48.816;9.930;2023-04-28T03:49:29;96505.06;;;11.23;75.09
78210;BME280;67485;48.816;9.930;2023-04-28T03:51:55;96503.53;;;11.17;74.82
78210;BME280;67485;48.816;9.930;2023-04-28T03:54:21;96518.56;;;11.12;75.56
78210;BME280;67485;48.816;9.930;2023-04-28T03:56:47;96512.38;;;11.13;75.16
78210;BME280;67485;48.816;9.930;2023-04-28T03:59:13;96519.09;;;11.22;74.03
78210;BME280;67485;48.816;9.930;2023-04-28T04:01:39;96518.19;;;11.23;74.33
78210;BME280;67485;48.816;9.930;2023-04-28T04:04:05;96511.34;;;11.18;74.14
78210;BME280;67485;48.816;9.930;2023-04-28T04:06:32;96515.97;;;11.10;75.00
78210;BME280;67485;48.816;9.930;2023-04-28T04:08:58;96515.25;;;11.05;75.76
78210;BME280;67485;48.816;9.930;2023-04-28T04:11:24;96515.38;;;11.02;76.46
78210;BME280;67485;48.816;9.930;2023-04-28T04:13:50;96525.88;;;11.02;75.76
78210;BME280;67485;48.816;9.930;2023-04-28T04:16:17;96521.38;;;11.06;75.54
78210;BME280;67485;48.816;9.930;2023-04-28T04:18:43;96524.66;;;11.12;74.97
78210;BME280;67485;48.816;9.930;2023-04-28T04:21:19;96529.00;;;11.13;75.50
78210;BME280;67485;48.816;9.930;2023-04-28T04:23:46;96513.25;;;11.13;74.56
78210;BME280;67485;48.816;9.930;2023-04-28T04:26:12;96517.75;;;11.10;74.81
78210;BME280;67485;48.816;9.930;2023-04-28T04:28:38;96523.94;;;11.07;75.64
78210;BME280;67485;48.816;9.930;2023-04-28T04:31:06;96516.91;;;11.09;75.33
78210;BME280;67485;48.816;9.930;2023-04-28T04:33:32;96502.97;;;11.07;76.73
78210;BME280;67485;48.816;9.930;2023-04-28T04:35:59;96508.41;;;11.01;78.12
78210;BME280;67485;48.816;9.930;2023-04-28T04:38:25;96515.03;;;10.86;80.49
78210;BME280;67485;48.816;9.930;2023-04-28T04:40:53;96524.88;;;10.79;81.17
78210;BME280;67485;48.816;9.930;2023-04-28T04:43:18;96524.75;;;10.82;80.71
78210;BME280;67485;48.816;9.930;2023-04-28T04:45:48;96517.41;;;11.19;75.82
78210;BME280;67485;48.816;9.930;2023-04-28T04:48:14;96516.47;;;11.22;74.46
78210;BME280;67485;48.816;9.930;2023-04-28T04:50:40;96511.00;;;11.28;74.53
78210;BME280;67485;48.816;9.930;2023-04-28T04:53:06;96509.03;;;11.34;74.38
78210;BME280;67485;48.816;9.930;2023-04-28T04:55:32;96507.06;;;11.41;73.85
78210;BME280;67485;48.816;9.930;2023-04-28T04:57:58;96508.16;;;11.34;74.26
78210;BME280;67485;48.816;9.930;2023-04-28T05:00:42;96501.94;;;11.38;73.52
78210;BME280;67485;48.816;9.930;2023-04-28T05:03:09;96511.06;;;11.51;73.26
78210;BME280;67485;48.816;9.930;2023-04-28T05:05:38;96510.16;;;11.52;73.37
78210;BME280;67485;48.816;9.930;2023-04-28T05:08:16;96524.19;;;11.51;73.96
78210;BME280;67485;48.816;9.930;2023-04-28T05:10:41;96525.75;;;11.57;73.31
78210;BME280;67485;48.816;9.930;2023-04-28T05:13:08;96524.09;;;11.55;73.73
78210;BME280;67485;48.816;9.930;2023-04-28T05:15:34;96517.00;;;11.57;73.46
78210;BME280;67485;48.816;9.930;2023-04-28T05:18:18;96516.34;;;11.75;72.65
78210;BME280;67485;48.816;9.930;2023-04-28T05:20:44;96511.22;;;11.72;73.53
78210;BME280;67485;48.816;9.930;2023-04-28T05:23:11;96515.25;;;11.57;74.26
78210;BME280;67485;48.816;9.930;2023-04-28T05:25:37;96517.13;;;11.54;76.68
78210;BME280;67485;48.816;9.930;2023-04-28T05:28:02;96512.22;;;11.44;76.24
78210;BME280;67485;48.816;9.930;2023-04-28T05:30:32;96512.31;;;11.41;77.36
78210;BME280;67485;48.816;9.930;2023-04-28T05:32:58;96515.84;;;11.40;78.20
78210;BME280;67485;48.816;9.930;2023-04-28T05:35:24;96520.94;;;11.45;77.80
78210;BME280;67485;48.816;9.930;2023-04-28T05:37:50;96506.31;;;11.38;77.27
78210;BME280;67485;48.816;9.930;2023-04-28T05:40:16;96505.34;;;11.40;77.17
78210;BME280;67485;48.816;9.930;2023-04-28T05:42:42;96498.44;;;11.38;77.93
78210;BME280;67485;48.816;9.930;2023-04-28T05:45:08;96498.50;;;11.36;78.78
78210;BME280;67485;48.816;9.930;2023-04-28T05:47:34;96497.41;;;11.42;79.39
78210;BME280;67485;48.816;9.930;2023-04-28T05:50:00;96488.63;;;11.43;79.41
78210;BME280;67485;48.816;9.930;2023-04-28T05:52:26;96480.38;;;11.54;78.72
78210;BME280;67485;48.816;9.930;2023-04-28T05:54:52;96486.75;;;11.46;78.89
78210;BME280;67485;48.816;9.930;2023-04-28T05:57:18;96489.16;;;11.52;78.58
78210;BME280;67485;48.816;9.930;2023-04-28T05:59:44;96485.03;;;11.45;79.59
78210;BME280;67485;48.816;9.930;2023-04-28T06:02:13;96487.84;;;11.41;79.95
78210;BME280;67485;48.816;9.930;2023-04-28T06:04:38;96509.69;;;11.41;80.06
78210;BME280;67485;48.816;9.930;2023-04-28T06:07:04;96520.09;;;11.44;77.75
78210;BME280;67485;48.816;9.930;2023-04-28T06:09:31;96524.50;;;11.42;78.86
78210;BME280;67485;48.816;9.930;2023-04-28T06:11:58;96520.44;;;11.33;79.40
78210;BME280;67485;48.816;9.930;2023-04-28T06:14:24;96517.28;;;11.24;79.18
78210;BME280;67485;48.816;9.930;2023-04-28T06:16:50;96513.94;;;11.18;80.61
78210;BME280;67485;48.816;9.930;2023-04-28T06:19:16;96513.94;;;11.18;80.76
78210;BME280;67485;48.816;9.930;2023-04-28T06:21:44;96513.31;;;11.12;81.11
78210;BME280;67485;48.816;9.930;2023-04-28T06:24:10;96506.41;;;11.09;81.33
78210;BME280;67485;48.816;9.930;2023-04-28T06:26:36;96501.88;;;11.13;81.10
78210;BME280;67485;48.816;9.930;2023-04-28T06:29:02;96499.34;;;11.11;81.65
78210;BME280;67485;48.816;9.930;2023-04-28T06:31:28;96498.44;;;11.12;81.56
78210;BME280;67485;48.816;9.930;2023-04-28T06:33:55;96490.41;;;11.17;81.69
78210;BME280;67485;48.816;9.930;2023-04-28T06:36:22;96488.53;;;11.21;81.39
78210;BME280;67485;48.816;9.930;2023-04-28T06:38:47;96495.38;;;11.25;81.58
78210;BME280;67485;48.816;9.930;2023-04-28T06:41:14;96491.84;;;11.26;81.85
78210;BME280;67485;48.816;9.930;2023-04-28T06:43:43;96503.94;;;11.30;81.34
78210;BME280;67485;48.816;9.930;2023-04-28T06:46:22;96505.00;;;11.24;82.12
78210;BME280;67485;48.816;9.930;2023-04-28T06:48:48;96499.53;;;11.30;82.70
78210;BME280;67485;48.816;9.930;2023-04-28T06:51:15;96500.09;;;11.40;82.57
78210;BME280;67485;48.816;9.930;2023-04-28T06:53:41;96498.81;;;11.52;83.63
78210;BME280;67485;48.816;9.930;2023-04-28T06:56:07;96497.72;;;11.58;83.68
78210;BME280;67485;48.816;9.930;2023-04-28T06:58:32;96482.84;;;11.58;82.82
78210;BME280;67485;48.816;9.930;2023-04-28T07:00:58;96480.44;;;11.52;83.23
78210;BME280;67485;48.816;9.930;2023-04-28T07:03:25;96477.38;;;11.39;83.78
78210;BME280;67485;48.816;9.930;2023-04-28T07:05:51;96484.69;;;11.31;84.61
78210;BME280;67485;48.816;9.930;2023-04-28T07:08:17;96484.91;;;11.25;85.48
78210;BME280;67485;48.816;9.930;2023-04-28T07:10:43;96479.16;;;11.13;86.20
78210;BME280;67485;48.816;9.930;2023-04-28T07:13:09;96486.53;;;11.02;86.85
78210;BME280;67485;48.816;9.930;2023-04-28T07:15:34;96490.88;;;11.03;86.94
78210;BME280;67485;48.816;9.930;2023-04-28T07:18:00;96477.59;;;11.08;86.60
78210;BME280;67485;48.816;9.930;2023-04-28T07:20:26;96485.63;;;11.03;87.81
78210;BME280;67485;48.816;9.930;2023-04-28T07:22:51;96487.03;;;11.13;86.66
78210;BME280;67485;48.816;9.930;2023-04-28T07:25:17;96485.66;;;11.28;86.89
78210;BME280;67485;48.816;9.930;2023-04-28T07:27:44;96488.00;;;11.36;86.30
78210;BME280;67485;48.816;9.930;2023-04-28T07:30:11;96479.84;;;11.44;88.10
78210;BME280;67485;48.816;9.930;2023-04-28T07:33:02;96482.31;;;11.48;90.30
78210;BME280;67485;48.816;9.930;2023-04-28T07:35:28;96483.91;;;11.52;89.32
78210;BME280;67485;48.816;9.930;2023-04-28T07:37:53;96470.63;;;11.57;89.51
78210;BME280;67485;48.816;9.930;2023-04-28T07:40:20;96481.19;;;11.56;93.10
78210;BME280;67485;48.816;9.930;2023-04-28T07:42:46;96480.09;;;11.61;93.07
78210;BME280;67485;48.816;9.930;2023-04-28T07:45:13;96480.16;;;11.60;92.21
78210;BME280;67485;48.816;9.930;2023-04-28T07:47:40;96487.19;;;11.59;91.95
78210;BME280;67485;48.816;9.930;2023-04-28T07:50:06;96479.94;;;11.66;91.18
78210;BME280;67485;48.816;9.930;2023-04-28T07:52:32;96484.09;;;11.72;91.29
78210;BME280;67485;48.816;9.930;2023-04-28T07:54:58;96474.47;;;11.72;91.81
78210;BME280;67485;48.816;9.930;2023-04-28T07:57:29;96452.66;;;11.70;92.59
78210;BME280;67485;48.816;9.930;2023-04-28T07:59:55;96465.78;;;11.70;94.85
78210;BME280;67485;48.816;9.930;2023-04-28T08:02:20;96464.47;;;11.58;97.21
78210;BME280;67485;48.816;9.930;2023-04-28T08:04:46;96464.94;;;11.70;95.13
78210;BME280;67485;48.816;9.930;2023-04-28T08:07:12;96457.53;;;11.81;95.78
78210;BME280;67485;48.816;9.930;2023-04-28T08:09:38;96469.75;;;11.57;96.99
78210;BME280;67485;48.816;9.930;2023-04-28T08:12:07;96459.41;;;11.54;96.13
78210;BME280;67485;48.816;9.930;2023-04-28T08:14:33;96464.03;;;11.45;97.02
78210;BME280;67485;48.816;9.930;2023-04-28T08:16:58;96460.91;;;11.35;98.14
78210;BME280;67485;48.816;9.930;2023-04-28T08:19:24;96462.66;;;11.35;99.67
78210;BME280;67485;48.816;9.930;2023-04-28T08:21:50;96464.81;;;11.24;100.00
78210;BME280;67485;48.816;9.930;2023-04-28T08:24:16;96471.09;;;11.19;100.00
78210;BME280;67485;48.816;9.930;2023-04-28T08:26:41;96462.94;;;11.27;100.00
78210;BME280;67485;48.816;9.930;2023-04-28T08:29:07;96467.78;;;11.14;100.00
78210;BME280;67485;48.816;9.930;2023-04-28T08:31:33;96464.94;;;11.21;100.00
78210;BME280;67485;48.816;9.930;2023-04-28T08:33:58;96473.00;;;11.14;100.00
78210;BME280;67485;48.816;9.930;2023-04-28T08:36:24;96470.34;;;11.16;100.00
78210;BME280;67485;48.816;9.930;2023-04-28T08:38:53;96474.28;;;11.28;100.00
78210;BME280;67485;48.816;9.930;2023-04-28T08:41:19;96484.91;;;11.25;100.00
78210;BME280;67485;48.816;9.930;2023-04-28T08:43:46;96490.13;;;11.25;100.00
78210;BME280;67485;48.816;9.930;2023-04-28T08:46:13;96501.44;;;11.27;100.00
78210;BME280;67485;48.816;9.930;2023-04-28T08:48:41;96504.06;;;11.27;100.00
78210;BME280;67485;48.816;9.930;2023-04-28T08:51:14;96508.16;;;11.34;100.00
78210;BME280;67485;48.816;9.930;2023-04-28T08:53:43;96516.78;;;11.38;100.00
78210;BME280;67485;48.816;9.930;2023-04-28T08:56:09;96519.34;;;11.39;100.00
78210;BME280;67485;48.816;9.930;2023-04-28T08:58:38;96527.00;;;11.47;100.00
78210;BME280;67485;48.816;9.930;2023-04-28T09:01:04;96515.31;;;11.56;100.00
78210;BME280;67485;48.816;9.930;2023-04-28T09:03:30;96514.75;;;11.71;100.00
78210;BME280;67485;48.816;9.930;2023-04-28T09:06:00;96517.63;;;11.89;99.69
78210;BME280;67485;48.816;9.930;2023-04-28T09:08:27;96519.09;;;11.97;98.09
78210;BME280;67485;48.816;9.930;2023-04-28T09:11:09;96526.13;;;11.97;97.68
78210;BME280;67485;48.816;9.930;2023-04-28T09:13:36;96517.72;;;12.11;97.05
78210;BME280;67485;48.816;9.930;2023-04-28T09:16:02;96515.63;;;12.19;97.26
78210;BME280;67485;48.816;9.930;2023-04-28T09:18:29;96515.06;;;12.35;97.23
78210;BME280;67485;48.816;9.930;2023-04-28T09:21:07;96509.94;;;12.54;96.95
78210;BME280;67485;48.816;9.930;2023-04-28T09:23:35;96513.91;;;12.64;95.25
78210;BME280;67485;48.816;9.930;2023-04-28T09:26:10;96516.56;;;12.86;94.83
78210;BME280;67485;48.816;9.930;2023-04-28T09:28:36;96519.88;;;13.12;91.44
78210;BME280;67485;48.816;9.930;2023-04-28T09:31:02;96506.59;;;13.15;91.96
78210;BME280;67485;48.816;9.930;2023-04-28T09:33:28;96510.47;;;13.27;91.68
78210;BME280;67485;48.816;9.930;2023-04-28T09:35:54;96512.59;;;13.19;91.58
78210;BME280;67485;48.816;9.930;2023-04-28T09:38:20;96525.22;;;13.31;91.01
78210;BME280;67485;48.816;9.930;2023-04-28T09:40:58;96519.81;;;13.13;91.78
78210;BME280;67485;48.816;9.930;2023-04-28T09:45:55;96512.66;;;13.17;92.51
78210;BME280;67485;48.816;9.930;2023-04-28T09:48:35;96512.69;;;13.16;91.53
78210;BME280;67485;48.816;9.930;2023-04-28T09:51:04;96512.59;;;13.19;91.87
78210;BME280;67485;48.816;9.930;2023-04-28T09:53:31;96511.03;;;13.14;92.03
78210;BME280;67485;48.816;9.930;2023-04-28T09:55:59;96511.34;;;13.27;92.49
78210;BME280;67485;48.816;9.930;2023-04-28T09:58:26;96500.91;;;13.46;93.08
78210;BME280;67485;48.816;9.930;2023-04-28T10:00:54;96505.38;;;13.65;92.03
78210;BME280;67485;48.816;9.930;2023-04-28T10:03:24;96498.09;;;13.91;90.86
78210;BME280;67485;48.816;9.930;2023-04-28T10:05:51;96498.34;;;14.43;87.77
78210;BME280;67485;48.816;9.930;2023-04-28T10:08:19;96497.63;;;14.40;88.24
78210;BME280;67485;48.816;9.930;2023-04-28T10:10:46;96491.34;;;14.42;87.25
78210;BME280;67485;48.816;9.930;2023-04-28T10:13:15;96479.25;;;14.56;87.43
78210;BME280;67485;48.816;9.930;2023-04-28T10:15:42;96480.69;;;14.63;88.29
78210;BME280;67485;48.816;9.930;2023-04-28T10:18:08;96465.22;;;14.74;88.07
78210;BME280;67485;48.816;9.930;2023-04-28T10:20:33;96460.75;;;14.94;88.33
78210;BME280;67485;48.816;9.930;2023-04-28T10:25:36;96459.25;;;14.71;87.96
78210;BME280;67485;48.816;9.930;2023-04-28T10:28:07;96456.94;;;14.63;89.09
78210;BME280;67485;48.816;9.930;2023-04-28T10:30:33;96454.28;;;14.65;88.79
78210;BME280;67485;48.816;9.930;2023-04-28T10:38:06;96482.31;;;14.29;92.20
78210;BME280;67485;48.816;9.930;2023-04-28T10:40:48;96483.50;;;14.22;94.23
78210;BME280;67485;48.816;9.930;2023-04-28T10:58:42;96474.94;;;14.55;90.90
78210;BME280;67485;48.816;9.930;2023-04-28T11:03:57;96489.75;;;14.38;92.72
78210;BME280;67485;48.816;9.930;2023-04-28T11:09:02;96491.28;;;14.25;94.62
78210;BME280;67485;48.816;9.930;2023-04-28T11:11:29;96487.28;;;14.35;94.00
78210;BME280;67485;48.816;9.930;2023-04-28T11:19:32;96492.78;;;14.11;95.26
78210;BME280;67485;48.816;9.930;2023-04-28T11:21:59;96490.56;;;14.02;95.10
78210;BME280;67485;48.816;9.930;2023-04-28T11:24:27;96499.59;;;13.97;96.77
78210;BME280;67485;48.816;9.930;2023-04-28T11:26:59;96497.25;;;14.09;96.56
78210;BME280;67485;48.816;9.930;2023-04-28T11:29:31;96502.03;;;14.39;94.85
78210;BME280;67485;48.816;9.930;2023-04-28T11:31:57;96501.31;;;14.74;93.42
78210;BME280;67485;48.816;9.930;2023-04-28T11:34:23;96492.25;;;14.97;92.10
78210;BME280;67485;48.816;9.930;2023-04-28T11:36:49;96496.78;;;15.13;91.41
78210;BME280;67485;48.816;9.930;2023-04-28T11:39:16;96496.78;;;15.13;91.15
78210;BME280;67485;48.816;9.930;2023-04-28T11:41:44;96503.22;;;15.07;90.22
78210;BME280;67485;48.816;9.930;2023-04-28T11:44:19;96497.00;;;14.90;91.64
78210;BME280;67485;48.816;9.930;2023-04-28T11:46:46;96497.03;;;14.71;92.78
78210;BME280;67485;48.816;9.930;2023-04-28T11:49:17;96505.50;;;14.59;93.50
78210;BME280;67485;48.816;9.930;2023-04-28T11:51:43;96501.16;;;14.58;95.08
78210;BME280;67485;48.816;9.930;2023-04-28T11:54:11;96499.97;;;14.65;95.86
78210;BME280;67485;48.816;9.930;2023-04-28T11:56:42;96502.69;;;14.62;95.16
78210;BME280;67485;48.816;9.930;2023-04-28T11:59:10;96501.31;;;14.55;95.00
78210;BME280;67485;48.816;9.930;2023-04-28T12:01:54;96502.31;;;14.52;95.93
78210;BME280;67485;48.816;9.930;2023-04-28T12:04:41;96500.59;;;14.70;95.09
78210;BME280;67485;48.816;9.930;2023-04-28T12:07:17;96494.84;;;14.99;93.81
78210;BME280;67485;48.816;9.930;2023-04-28T12:09:45;96487.31;;;15.26;92.79
78210;BME280;67485;48.816;9.930;2023-04-28T12:12:31;96487.78;;;15.34;92.63
78210;BME280;67485;48.816;9.930;2023-04-28T12:15:00;96488.28;;;15.59;92.55
78210;BME280;67485;48.816;9.930;2023-04-28T12:17:28;96486.63;;;15.73;91.11
78210;BME280;67485;48.816;9.930;2023-04-28T12:19:55;96489.81;;;15.80;89.98
78210;BME280;67485;48.816;9.930;2023-04-28T12:22:22;96480.72;;;15.86;90.03
78210;BME280;67485;48.816;9.930;2023-04-28T12:25:08;96489.13;;;15.94;89.63
78210;BME280;67485;48.816;9.930;2023-04-28T12:27:38;96486.22;;;15.99;89.67
78210;BME280;67485;48.816;9.930;2023-04-28T12:32:46;96485.00;;;15.88;91.07
78210;BME280;67485;48.816;9.930;2023-04-28T12:35:12;96482.44;;;15.87;90.40
78210;BME280;67485;48.816;9.930;2023-04-28T12:37:39;96480.66;;;15.87;91.16
78210;BME280;67485;48.816;9.930;2023-04-28T12:40:06;96477.78;;;15.75;92.67
78210;BME280;67485;48.816;9.930;2023-04-28T12:42:33;96485.59;;;15.60;92.79
78210;BME280;67485;48.816;9.930;2023-04-28T12:44:59;96478.06;;;15.52;92.70
78210;BME280;67485;48.816;9.930;2023-04-28T12:47:24;96483.38;;;15.68;91.98
78210;BME280;67485;48.816;9.930;2023-04-28T12:49:50;96485.28;;;15.66;91.78
78210;BME280;67485;48.816;9.930;2023-04-28T12:52:20;96482.03;;;15.61;92.13
78210;BME280;67485;48.816;9.930;2023-04-28T12:54:47;96488.69;;;15.51;91.93
78210;BME280;67485;48.816;9.930;2023-04-28T12:57:18;96478.13;;;15.33;91.37
78210;BME280;67485;48.816;9.930;2023-04-28T12:59:45;96477.06;;;15.20;91.65
78210;BME280;67485;48.816;9.930;2023-04-28T13:02:13;96487.38;;;15.07;93.10
78210;BME280;67485;48.816;9.930;2023-04-28T13:04:40;96478.03;;;14.82;93.41
78210;BME280;67485;48.816;9.930;2023-04-28T13:07:11;96479.03;;;14.80;93.54
78210;BME280;67485;48.816;9.930;2023-04-28T13:09:37;96494.03;;;14.60;93.66
78210;BME280;67485;48.816;9.930;2023-04-28T13:12:09;96499.72;;;14.51;93.80
78210;BME280;67485;48.816;9.930;2023-04-28T13:14:36;96514.56;;;14.34;94.53
78210;BME280;67485;48.816;9.930;2023-04-28T13:17:02;96513.41;;;14.21;94.48
78210;BME280;67485;48.816;9.930;2023-04-28T13:19:28;96512.72;;;14.17;95.15
78210;BME280;67485;48.816;9.930;2023-04-28T13:21:55;96508.00;;;14.05;95.75
78210;BME280;67485;48.816;9.930;2023-04-28T13:24:21;96503.88;;;13.99;97.04
78210;BME280;67485;48.816;9.930;2023-04-28T13:26:47;96502.03;;;14.01;97.40
78210;BME280;67485;48.816;9.930;2023-04-28T13:29:13;96494.75;;;14.06;97.07
78210;BME280;67485;48.816;9.930;2023-04-28T13:31:39;96507.66;;;14.13;97.35
78210;BME280;67485;48.816;9.930;2023-04-28T13:34:05;96502.59;;;14.08;98.19
78210;BME280;67485;48.816;9.930;2023-04-28T13:36:32;96505.59;;;14.00;99.65
78210;BME280;67485;48.816;9.930;2023-04-28T13:38:58;96506.50;;;13.99;100.00
78210;BME280;67485;48.816;9.930;2023-04-28T13:41:25;96497.25;;;14.09;100.00
78210;BME280;67485;48.816;9.930;2023-04-28T13:43:51;96488.50;;;14.28;100.00